Time;durP1;ratioP1;P1;durP2;ratioP2;P2;SDS_P1;SDS_P2;PMS_P1;PMS_P2;Temp;Humidity;BMP_temperature;BMP_pressure;BME280_temperature;BME280_humidity;BME280_pressure;Samples;Min_cycle;Max_cycle;Signal;HPM_P1;HPM_P2
2022/02/15 00:00:46;;;;;;;24.00;16.73;;;;;;;6.18;54.50;102434.91;1828751;78;21465;-71
2022/02/15 00:03:12;;;;;;;22.55;15.95;;;;;;;6.22;54.51;102436.72;1829156;78;21802;-71
2022/02/15 00:05:39;;;;;;;21.75;15.58;;;;;;;6.23;54.42;102438.48;1828750;78;21581;-71
2022/02/15 00:08:06;;;;;;;23.27;16.73;;;;;;;6.26;54.41;102438.56;1829024;78;20978;-72
2022/02/15 00:10:32;;;;;;;24.72;17.20;;;;;;;6.29;54.29;102435.16;1829071;78;21057;-70
2022/02/15 00:13:02;;;;;;;26.93;16.15;;;;;;;6.31;54.20;102433.06;1828776;78;21494;-71
2022/02/15 00:15:28;;;;;;;22.35;15.18;;;;;;;6.32;54.12;102430.95;1828667;78;21032;-70
2022/02/15 00:17:54;;;;;;;22.20;14.53;;;;;;;6.33;54.12;102427.50;1829062;78;21497;-72
2022/02/15 00:20:21;;;;;;;21.68;15.63;;;;;;;6.32;54.00;102430.95;1828956;78;21481;-71
2022/02/15 00:22:47;;;;;;;19.98;14.93;;;;;;;6.28;53.93;102426.55;1826847;78;21513;-71
2022/02/15 00:25:15;;;;;;;19.15;14.75;;;;;;;6.26;53.91;102425.64;1810977;78;21033;-71
2022/02/15 00:27:42;;;;;;;22.15;14.45;;;;;;;6.25;54.09;102422.59;1765574;81;21009;-71
2022/02/15 00:30:11;;;;;;;20.72;14.25;;;;;;;6.28;54.13;102418.79;1746241;81;21026;-71
2022/02/15 00:32:37;;;;;;;18.15;14.40;;;;;;;6.30;54.20;102417.11;1745569;82;20987;-71
2022/02/15 00:35:05;;;;;;;19.75;14.45;;;;;;;6.31;54.16;102413.67;1745652;81;21525;-71
2022/02/15 00:37:32;;;;;;;20.08;14.95;;;;;;;6.32;54.17;102416.73;1745621;81;21514;-71
2022/02/15 00:39:59;;;;;;;19.15;14.75;;;;;;;6.32;54.10;102414.14;1745988;82;21046;-71
2022/02/15 00:42:25;;;;;;;20.43;15.03;;;;;;;6.34;54.15;102410.29;1732792;81;21045;-71
2022/02/15 00:44:52;;;;;;;18.12;13.83;;;;;;;6.36;54.16;102397.86;1745864;82;21015;-70
2022/02/15 00:47:21;;;;;;;19.23;14.07;;;;;;;6.39;54.21;102396.61;1745807;81;21026;-71
2022/02/15 00:49:47;;;;;;;21.50;14.50;;;;;;;6.40;54.17;102399.66;1742722;81;20963;-72
2022/02/15 00:52:13;;;;;;;20.82;13.90;;;;;;;6.41;54.13;102398.81;1746005;82;20978;-71
2022/02/15 00:54:40;;;;;;;18.25;13.98;;;;;;;6.41;54.12;102394.93;1745039;82;21065;-71
2022/02/15 00:57:06;;;;;;;20.60;14.35;;;;;;;6.43;54.14;102397.13;1755392;80;20995;-71
2022/02/15 00:59:33;;;;;;;17.77;13.72;;;;;;;6.46;54.08;102393.33;1755401;82;21017;-70
2022/02/15 01:01:59;;;;;;;18.25;13.43;;;;;;;6.47;54.08;102393.76;1756119;80;20990;-71
2022/02/15 01:04:26;;;;;;;19.67;14.18;;;;;;;6.49;54.03;102391.23;1754313;82;21041;-71
2022/02/15 01:06:53;;;;;;;19.77;14.47;;;;;;;6.49;53.94;102386.06;1748205;80;21058;-70
2022/02/15 01:09:20;;;;;;;20.48;14.25;;;;;;;6.46;53.84;102384.27;1756046;80;21022;-71
2022/02/15 01:11:47;;;;;;;19.40;14.50;;;;;;;6.41;53.75;102388.46;1753695;82;21034;-72
2022/02/15 01:14:13;;;;;;;18.15;14.10;;;;;;;6.39;53.86;102384.98;1755384;82;20985;-72
2022/02/15 01:16:40;;;;;;;21.87;15.58;;;;;;;6.41;53.91;102379.41;1754524;82;21061;-71
2022/02/15 01:19:06;;;;;;;21.37;14.03;;;;;;;6.39;53.80;102382.39;1755015;82;20979;-70
2022/02/15 01:21:33;;;;;;;19.98;14.68;;;;;;;6.39;53.86;102381.51;1756451;80;20998;-70
2022/02/15 01:24:00;;;;;;;20.88;13.40;;;;;;;6.40;53.90;102385.44;1756449;80;21045;-72
2022/02/15 01:26:26;;;;;;;20.35;13.38;;;;;;;6.42;53.94;102385.47;1770796;80;21015;-71
2022/02/15 01:28:53;;;;;;;17.73;13.83;;;;;;;6.44;53.96;102385.95;1770643;81;21002;-70
2022/02/15 01:31:19;;;;;;;17.35;13.13;;;;;;;6.46;53.96;102382.98;1770666;80;20989;-71
2022/02/15 01:33:46;;;;;;;19.95;13.43;;;;;;;6.49;54.02;102386.91;1770548;81;21030;-71
2022/02/15 01:36:13;;;;;;;25.43;13.65;;;;;;;6.52;54.02;102387.40;1770529;81;21066;-71
2022/02/15 01:38:39;;;;;;;16.97;12.55;;;;;;;6.52;53.92;102389.57;1770538;80;21053;-71
2022/02/15 01:41:07;;;;;;;16.93;13.08;;;;;;;6.53;53.89;102392.59;1770805;80;21010;-72
2022/02/15 01:43:40;;;;;;;18.52;12.95;;;;;;;6.56;53.84;102386.20;1770558;80;21019;-71
2022/02/15 01:46:07;;;;;;;17.27;12.45;;;;;;;6.58;53.80;102388.41;1770965;80;21009;-71
2022/02/15 01:48:35;;;;;;;17.92;13.93;;;;;;;6.61;53.80;102382.84;1770706;81;20975;-71
2022/02/15 01:51:05;;;;;;;19.48;13.48;;;;;;;6.62;53.79;102383.27;1770743;80;21056;-71
2022/02/15 01:53:32;;;;;;;18.37;13.03;;;;;;;6.64;53.80;102382.88;1770887;80;21003;-70
2022/02/15 01:55:59;;;;;;;18.17;13.35;;;;;;;6.63;53.73;102380.74;1757418;81;21003;-71
2022/02/15 01:58:26;;;;;;;20.55;12.47;;;;;;;6.64;53.78;102388.05;1770699;80;21627;-71
2022/02/15 02:00:54;;;;;;;18.85;13.30;;;;;;;6.66;53.73;102390.28;1770810;81;21046;-72
2022/02/15 02:03:22;;;;;;;18.42;12.93;;;;;;;6.66;53.65;102392.87;1766803;81;21029;-72
2022/02/15 02:05:49;;;;;;;16.40;12.43;;;;;;;6.67;53.54;102391.59;1770739;80;20983;-72
2022/02/15 02:08:22;;;;;;;18.35;12.90;;;;;;;6.67;53.54;102386.84;1770444;81;21009;-71
2022/02/15 02:10:49;;;;;;;17.25;12.80;;;;;;;6.68;53.52;102396.36;1757150;80;20974;-72
2022/02/15 02:13:23;;;;;;;17.30;13.78;;;;;;;6.68;53.51;102393.33;1766493;81;21518;-72
2022/02/15 02:15:51;;;;;;;20.30;13.83;;;;;;;6.68;53.48;102396.36;1770564;80;21021;-72
2022/02/15 02:18:19;;;;;;;21.37;13.35;;;;;;;6.68;53.28;102391.19;1760399;80;20985;-72
2022/02/15 02:20:47;;;;;;;17.73;13.05;;;;;;;6.68;53.28;102386.86;1742633;80;21503;-72
2022/02/15 02:23:18;;;;;;;17.67;12.63;;;;;;;6.69;53.22;102393.80;1768741;80;22191;-72
2022/02/15 02:25:45;;;;;;;18.95;12.58;;;;;;;6.69;53.22;102391.63;1764843;81;21079;-72
2022/02/15 02:28:13;;;;;;;17.30;12.60;;;;;;;6.68;53.23;102386.86;1765090;81;21050;-71
2022/02/15 02:30:40;;;;;;;16.15;11.90;;;;;;;6.69;53.30;102389.91;1765087;80;21025;-71
2022/02/15 02:33:07;;;;;;;15.93;10.90;;;;;;;6.70;53.27;102389.50;1765124;80;20988;-71
2022/02/15 02:35:35;;;;;;;18.62;11.65;;;;;;;6.69;53.24;102385.16;1765157;80;20985;-71
2022/02/15 02:38:02;;;;;;;18.42;11.15;;;;;;;6.68;53.20;102382.98;1764979;80;21045;-71
2022/02/15 02:40:29;;;;;;;14.85;10.63;;;;;;;6.68;53.23;102384.72;1765099;80;20947;-72
2022/02/15 02:42:55;;;;;;;13.55;10.78;;;;;;;6.69;53.18;102387.74;1764903;80;21085;-71
2022/02/15 02:45:24;;;;;;;13.90;10.10;;;;;;;6.67;53.18;102382.96;1765113;80;21558;-72
2022/02/15 02:47:53;;;;;;;15.63;10.72;;;;;;;6.67;53.17;102381.66;1764892;80;21106;-72
2022/02/15 02:50:24;;;;;;;14.70;9.70;;;;;;;6.65;53.07;102383.35;1765120;80;21082;-72
2022/02/15 02:52:51;;;;;;;13.20;10.03;;;;;;;6.64;53.02;102381.59;1764928;81;21035;-71
2022/02/15 02:55:19;;;;;;;13.05;10.13;;;;;;;6.62;52.98;102381.98;1765469;81;21072;-71
2022/02/15 02:57:47;;;;;;;14.80;10.45;;;;;;;6.59;52.96;102377.20;1764890;81;21068;-70
2022/02/15 03:00:16;;;;;;;15.88;10.65;;;;;;;6.57;53.01;102377.59;1765008;81;21027;-72
2022/02/15 03:02:50;;;;;;;14.20;9.83;;;;;;;6.56;53.01;102382.33;1665985;85;21016;-72
2022/02/15 03:05:17;;;;;;;14.18;10.30;;;;;;;6.54;53.05;102382.72;1659605;85;21091;-71
2022/02/15 03:07:44;;;;;;;16.42;10.38;;;;;;;6.53;53.06;102380.95;1696322;83;21067;-71
2022/02/15 03:10:11;;;;;;;18.52;9.53;;;;;;;6.52;53.09;102380.52;1696247;83;21014;-71
2022/02/15 03:12:37;;;;;;;12.50;9.60;;;;;;;6.51;53.14;102383.93;1668425;83;21023;-72
2022/02/15 03:15:07;;;;;;;23.85;10.63;;;;;;;6.51;53.11;102386.96;1701007;83;21016;-72
2022/02/15 03:17:36;;;;;;;13.55;10.00;;;;;;;6.49;53.16;102389.49;1694254;83;21088;-71
2022/02/15 03:20:03;;;;;;;14.78;8.88;;;;;;;6.49;53.15;102388.20;1660880;83;21616;-72
2022/02/15 03:22:30;;;;;;;14.33;8.53;;;;;;;6.50;53.07;102387.38;1696436;83;21021;-72
2022/02/15 03:24:56;;;;;;;10.82;8.70;;;;;;;6.49;53.00;102395.11;1708514;82;21086;-71
2022/02/15 03:27:23;;;;;;;13.38;8.30;;;;;;;6.48;52.91;102389.06;1730871;81;21026;-71
2022/02/15 03:29:50;;;;;;;8.78;6.78;;;;;;;6.48;52.81;102389.06;1723649;82;21070;-72
2022/02/15 03:32:17;;;;;;;10.63;7.65;;;;;;;6.48;52.77;102387.77;1700227;82;21537;-71
2022/02/15 03:34:44;;;;;;;10.18;7.15;;;;;;;6.47;52.73;102387.30;1723881;82;21053;-71
2022/02/15 03:37:11;;;;;;;9.98;7.35;;;;;;;6.48;52.63;102385.18;1726170;82;20986;-71
2022/02/15 03:39:38;;;;;;;10.60;7.25;;;;;;;6.47;52.61;102386.00;1764076;77;21565;-71
2022/02/15 03:44:53;;;;;;;11.05;7.05;;;;;;;6.47;52.53;102389.88;1829558;77;21087;-71
2022/02/15 03:47:21;;;;;;;12.15;6.42;;;;;;;6.47;52.51;102387.30;1830377;77;20985;-70
2022/02/15 03:49:48;;;;;;;8.70;6.55;;;;;;;6.47;52.51;102382.13;1834853;78;20997;-71
2022/02/15 03:52:15;;;;;;;10.63;6.85;;;;;;;6.47;52.43;102387.30;1834606;77;21516;-72
2022/02/15 03:54:43;;;;;;;7.65;6.35;;;;;;;6.47;52.40;102384.70;1834519;78;21512;-71
2022/02/15 03:57:11;;;;;;;11.30;7.50;;;;;;;6.45;52.30;102386.39;1834555;77;21489;-71
2022/02/15 03:59:38;;;;;;;8.98;6.20;;;;;;;6.45;52.26;102389.42;1834571;77;20989;-71
2022/02/15 04:02:06;;;;;;;12.20;6.85;;;;;;;6.43;52.16;102385.48;1827723;77;21088;-71
2022/02/15 04:04:33;;;;;;;10.90;6.65;;;;;;;6.44;52.03;102389.84;1834747;77;20962;-70
2022/02/15 04:06:59;;;;;;;7.70;5.92;;;;;;;6.42;51.85;102391.52;1833173;78;20969;-71
2022/02/15 04:09:26;;;;;;;10.25;6.08;;;;;;;6.39;51.71;102397.90;1834551;77;21044;-70
2022/02/15 04:11:53;;;;;;;9.75;6.20;;;;;;;6.36;51.61;102393.98;1834588;77;21373;-71
2022/02/15 04:14:22;;;;;;;7.75;6.05;;;;;;;6.31;51.67;102398.16;1834358;78;21525;-71
2022/02/15 04:16:49;;;;;;;6.92;5.78;;;;;;;6.28;51.67;102405.87;1834763;78;21000;-72
2022/02/15 04:19:17;;;;;;;7.37;5.92;;;;;;;6.23;51.63;102408.76;1834591;77;21469;-71
2022/02/15 04:21:44;;;;;;;9.55;6.12;;;;;;;6.19;51.73;102398.31;1834754;77;20981;-71
2022/02/15 04:24:11;;;;;;;8.58;5.65;;;;;;;6.17;51.66;102401.28;1823928;77;20990;-71
2022/02/15 04:26:38;;;;;;;9.23;6.10;;;;;;;6.13;51.61;102399.47;1801341;80;21041;-71
2022/02/15 04:29:06;;;;;;;8.38;5.67;;;;;;;6.11;51.54;102404.61;1801324;80;21043;-71
2022/02/15 04:31:34;;;;;;;7.62;5.45;;;;;;;6.09;51.65;102403.70;1796854;78;21529;-72
2022/02/15 04:34:01;;;;;;;9.35;5.78;;;;;;;6.07;51.55;102407.97;1801240;80;21481;-70
2022/02/15 04:36:28;;;;;;;8.60;5.28;;;;;;;6.05;51.32;102408.34;1801204;78;21489;-71
2022/02/15 04:38:56;;;;;;;7.50;5.65;;;;;;;6.03;51.15;102412.61;1801282;78;21516;-70
2022/02/15 04:41:23;;;;;;;8.75;5.35;;;;;;;6.00;50.93;102408.65;1800897;78;21298;-70
2022/02/15 04:43:51;;;;;;;8.03;5.08;;;;;;;5.97;50.87;102408.59;1801329;80;20982;-70
2022/02/15 04:46:20;;;;;;;6.92;5.10;;;;;;;5.95;50.84;102410.27;1796776;78;21552;-71
2022/02/15 04:48:47;;;;;;;7.40;4.95;;;;;;;5.93;50.78;102411.06;1801388;78;21457;-70
2022/02/15 04:51:15;;;;;;;8.95;5.47;;;;;;;5.90;50.81;102413.16;1801109;80;20986;-71
2022/02/15 04:53:43;;;;;;;6.80;4.67;;;;;;;5.88;50.82;102410.95;1801159;80;21480;-70
2022/02/15 04:56:10;;;;;;;7.80;4.92;;;;;;;5.88;50.71;102408.38;1801353;80;20985;-71
2022/02/15 04:58:37;;;;;;;7.37;4.92;;;;;;;5.88;50.73;102410.07;1801499;79;20949;-71
2022/02/15 05:01:05;;;;;;;8.85;4.92;;;;;;;5.87;50.68;102413.09;1794815;80;21052;-71
2022/02/15 05:03:37;;;;;;;5.17;4.40;;;;;;;5.87;50.51;102415.69;1797140;80;21008;-71
2022/02/15 05:06:03;;;;;;;6.60;3.92;;;;;;;5.86;50.41;102420.37;1801289;80;21010;-71
2022/02/15 05:08:31;;;;;;;8.65;4.40;;;;;;;5.84;50.38;102425.92;1772450;79;20985;-71
2022/02/15 05:11:02;;;;;;;7.95;5.05;;;;;;;5.82;50.39;102422.81;1801203;80;21034;-70
2022/02/15 05:13:31;;;;;;;7.87;4.47;;;;;;;5.82;50.33;102426.27;1796951;80;21017;-71
2022/02/15 05:16:01;;;;;;;10.72;5.47;;;;;;;5.80;50.34;102427.95;1735938;80;21041;-71
2022/02/15 05:18:29;;;;;;;11.20;5.72;;;;;;;5.79;50.36;102430.06;1735849;83;21021;-71
2022/02/15 05:23:26;;;;;;;10.70;5.45;;;;;;;5.77;50.50;102435.61;1730313;83;21071;-71
2022/02/15 05:25:53;;;;;;;6.45;4.60;;;;;;;5.75;50.61;102436.87;1752767;81;21133;-70
2022/02/15 05:28:25;;;;;;;8.93;4.33;;;;;;;5.75;50.55;102437.28;1639513;87;21040;-71
2022/02/15 05:30:52;;;;;;;6.78;4.90;;;;;;;5.73;50.58;102440.24;1640368;87;21059;-70
2022/02/15 05:33:21;;;;;;;6.47;4.55;;;;;;;5.72;50.55;102447.55;1636326;87;21039;-71
2022/02/15 05:35:49;;;;;;;6.40;5.33;;;;;;;5.71;50.48;102447.08;1607109;89;21069;-71
2022/02/15 05:38:17;;;;;;;7.67;4.97;;;;;;;5.69;50.46;102444.88;1586745;90;21554;-71
2022/02/15 05:40:45;;;;;;;8.55;5.00;;;;;;;5.68;50.50;102446.61;1607710;89;21117;-70
2022/02/15 05:43:14;;;;;;;6.33;4.62;;;;;;;5.69;50.58;102455.20;1607917;89;21055;-71
2022/02/15 05:45:42;;;;;;;6.85;5.00;;;;;;;5.68;50.68;102456.06;1607073;89;21545;-70
2022/02/15 05:48:19;;;;;;;10.00;6.03;;;;;;;5.68;50.79;102453.48;1595124;89;21086;-71
2022/02/15 05:50:51;;;;;;;15.08;6.05;;;;;;;5.69;50.84;102452.63;1592891;89;21050;-71
2022/02/15 05:53:27;;;;;;;10.90;5.40;;;;;;;5.70;50.85;102455.69;1568141;89;21058;-71
2022/02/15 05:55:58;;;;;;;12.80;5.87;;;;;;;5.71;50.92;102455.71;1588396;90;21074;-71
2022/02/15 05:58:26;;;;;;;11.57;6.22;;;;;;;5.74;50.92;102452.34;1617131;88;21137;-71
2022/02/15 06:00:54;;;;;;;8.23;5.17;;;;;;;5.75;51.03;102453.66;1617469;88;21157;-72
2022/02/15 06:06:07;;;;;;;13.13;5.55;;;;;;;5.80;51.18;102456.36;1658959;84;21050;-73
2022/02/15 06:08:38;;;;;;;11.15;5.75;;;;;;;5.83;51.20;102457.74;1699654;84;21042;-72
2022/02/15 06:11:07;;;;;;;;;;;;;;;5.86;51.24;102455.25;1696867;84;21054;-69
2022/02/15 06:13:38;;;;;;;14.18;5.03;;;;;;;5.93;51.59;102458.45;1696011;84;20095;-69
2022/02/15 06:16:07;;;;;;;11.88;4.35;;;;;;;6.03;52.26;102459.53;1656318;86;21061;-70
2022/02/15 06:18:36;;;;;;;10.63;4.70;;;;;;;6.22;52.64;102458.69;1629467;87;21047;-69
2022/02/15 06:21:05;;;;;;;6.08;4.03;;;;;;;6.57;52.18;102466.81;1690243;84;21522;-69
2022/02/15 06:23:32;;;;;;;7.03;3.95;;;;;;;7.02;51.35;102458.27;1727943;82;21111;-69
2022/02/15 06:26:06;;;;;;;12.07;4.25;;;;;;;7.49;50.36;102464.34;1728414;82;21027;-70
2022/02/15 06:28:35;;;;;;;7.67;3.90;;;;;;;7.99;49.11;102459.59;1721222;82;21011;-71
2022/02/15 06:31:03;;;;;;;5.12;4.20;;;;;;;8.44;48.19;102463.33;1728801;82;21029;-70
2022/02/15 06:33:34;;;;;;;9.48;4.40;;;;;;;8.86;47.60;102460.02;1729936;82;21031;-71
2022/02/15 06:36:03;;;;;;;8.28;4.08;;;;;;;9.23;46.89;102454.39;1728567;82;21062;-71
2022/02/15 06:38:30;;;;;;;5.53;3.60;;;;;;;9.57;46.04;102465.55;1719376;82;21033;-70
2022/02/15 06:40:59;;;;;;;6.85;3.70;;;;;;;9.85;45.46;102462.33;1650237;86;21109;-71
2022/02/15 06:43:28;;;;;;;6.53;2.85;;;;;;;10.10;44.48;102464.73;1613519;88;21106;-70
2022/02/15 06:45:55;;;;;;;6.15;2.45;;;;;;;10.33;44.04;102458.38;1638189;87;21153;-71
2022/02/15 06:48:24;;;;;;;4.65;2.33;;;;;;;10.56;42.85;102456.78;1626879;88;21126;-70
2022/02/15 06:50:52;;;;;;;4.30;2.10;;;;;;;10.75;41.95;102452.54;1625909;88;21130;-70
2022/02/15 06:53:30;;;;;;;3.40;2.22;;;;;;;10.90;41.45;102456.06;1587542;89;21602;-70
2022/02/15 06:56:11;;;;;;;4.03;2.00;;;;;;;11.05;40.99;102458.73;1587741;89;21178;-71
2022/02/15 06:58:40;;;;;;;5.30;2.95;;;;;;;11.17;40.54;102457.47;1589955;89;21113;-70
2022/02/15 07:01:09;;;;;;;3.08;1.98;;;;;;;11.27;40.50;102464.44;1590664;89;21552;-71
2022/02/15 07:03:36;;;;;;;5.53;2.27;;;;;;;11.28;40.12;102461.41;1567522;91;21106;-70
2022/02/15 07:06:04;;;;;;;4.65;2.10;;;;;;;11.25;40.27;102460.11;1566427;90;21123;-71
2022/02/15 07:08:31;;;;;;;6.78;2.30;;;;;;;11.18;40.07;102455.31;1565570;90;21514;-70
2022/02/15 07:10:59;;;;;;;4.03;2.27;;;;;;;11.09;39.87;102457.88;1565119;91;21121;-70
2022/02/15 07:13:29;;;;;;;3.17;2.00;;;;;;;10.97;39.82;102457.84;1564485;90;21577;-70
2022/02/15 07:15:57;;;;;;;3.70;1.92;;;;;;;10.83;39.93;102449.11;1565464;90;21062;-70
2022/02/15 07:18:26;;;;;;;5.20;2.17;;;;;;;10.69;40.06;102453.39;1582954;87;21007;-70
2022/02/15 07:21:03;;;;;;;4.95;2.12;;;;;;;10.55;40.26;102455.06;1562567;92;21124;-70
2022/02/15 07:23:32;;;;;;;7.42;2.02;;;;;;;10.40;40.73;102454.97;1551198;91;21522;-70
2022/02/15 07:26:18;;;;;;;4.22;2.22;;;;;;;10.28;40.94;102447.09;1556172;92;21133;-70
2022/02/15 07:29:05;;;;;;;4.80;2.00;;;;;;;10.12;41.07;102443.50;1554244;91;21563;-70
2022/02/15 07:31:33;;;;;;;6.67;3.02;;;;;;;9.97;41.37;102445.09;1601974;89;21147;-70
2022/02/15 07:33:59;;;;;;;5.37;2.22;;;;;;;9.82;41.74;102446.73;1599373;89;21040;-70
2022/02/15 07:36:26;;;;;;;6.37;2.70;;;;;;;9.68;42.20;102440.55;1658160;86;21065;-70
2022/02/15 07:38:54;;;;;;;3.83;2.70;;;;;;;9.57;42.65;102446.06;1658849;86;21061;-70
2022/02/15 07:41:21;;;;;;;6.92;3.35;;;;;;;9.44;43.02;102439.00;1659787;86;21098;-70
2022/02/15 07:43:48;;;;;;;6.40;3.30;;;;;;;9.36;43.49;102447.15;1654643;86;21500;-70
2022/02/15 07:46:16;;;;;;;6.97;3.40;;;;;;;9.31;43.91;102445.38;1655045;86;21083;-71
2022/02/15 07:48:43;;;;;;;6.08;2.90;;;;;;;9.25;44.24;102443.59;1660274;86;21628;-70
2022/02/15 07:51:10;;;;;;;5.00;2.87;;;;;;;9.20;44.30;102447.85;1678813;85;21021;-70
2022/02/15 07:53:37;;;;;;;5.80;2.65;;;;;;;9.17;44.42;102447.80;1672574;84;21081;-70
2022/02/15 07:56:04;;;;;;;4.53;2.77;;;;;;;9.13;44.44;102447.78;1639825;85;21517;-70
2022/02/15 07:58:32;;;;;;;5.78;2.37;;;;;;;9.06;44.31;102446.83;1732986;82;21042;-70
2022/02/15 08:01:01;;;;;;;4.37;2.67;;;;;;;8.94;44.45;102446.70;1757808;80;21035;-70
2022/02/15 08:03:27;;;;;;;9.25;3.30;;;;;;;8.81;44.96;102450.87;1754058;80;21050;-73
2022/02/15 08:05:54;;;;;;;6.40;3.37;;;;;;;8.71;45.43;102455.92;1779234;79;21062;-69
2022/02/15 08:08:21;;;;;;;5.47;2.98;;;;;;;8.61;45.70;102454.06;1784938;79;20964;-71
2022/02/15 08:10:48;;;;;;;3.85;2.58;;;;;;;8.54;46.06;102453.10;1790377;79;21095;-69
2022/02/15 08:13:18;;;;;;;8.68;2.72;;;;;;;8.49;46.48;102448.71;1794592;79;21011;-71
2022/02/15 08:15:44;;;;;;;11.90;3.02;;;;;;;8.44;46.63;102452.95;1792086;79;21462;-70
2022/02/15 08:18:11;;;;;;;7.25;3.50;;;;;;;8.40;47.07;102451.16;1784819;80;21011;-70
2022/02/15 08:20:38;;;;;;;3.85;2.20;;;;;;;8.39;47.19;102454.63;1792038;79;21495;-71
2022/02/15 08:23:06;;;;;;;5.08;2.50;;;;;;;8.38;47.37;102458.05;1772879;80;21034;-69
2022/02/15 08:25:34;;;;;;;3.20;2.10;;;;;;;8.39;47.59;102462.41;1766509;79;21572;-68
2022/02/15 08:28:01;;;;;;;6.17;2.58;;;;;;;8.39;47.80;102461.11;1748329;80;21002;-67
2022/02/15 08:30:29;;;;;;;4.47;2.62;;;;;;;8.41;47.83;102455.52;1744076;80;21037;-69
2022/02/15 08:33:00;;;;;;;4.70;2.60;;;;;;;8.43;47.97;102451.22;1736156;80;21045;-70
2022/02/15 08:35:27;;;;;;;4.30;2.80;;;;;;;8.41;48.26;102456.36;1754526;81;21045;-71
2022/02/15 08:37:55;;;;;;;4.87;2.70;;;;;;;8.40;48.43;102460.24;1755775;81;20984;-72
2022/02/15 08:40:21;;;;;;;8.15;3.25;;;;;;;8.38;48.50;102463.24;1757723;81;20992;-71
2022/02/15 08:42:50;;;;;;;5.10;2.42;;;;;;;8.34;48.75;102462.34;1735481;81;21042;-70
2022/02/15 08:45:18;;;;;;;9.38;2.85;;;;;;;8.33;48.72;102459.70;1739328;81;21841;-71
2022/02/15 08:47:45;;;;;;;5.25;2.65;;;;;;;8.31;48.75;102456.20;1715174;82;21063;-70
2022/02/15 08:50:12;;;;;;;4.30;2.70;;;;;;;8.29;49.04;102463.98;1752541;81;21025;-70
2022/02/15 08:52:39;;;;;;;6.22;2.67;;;;;;;8.29;49.17;102466.98;1732364;81;21021;-72
2022/02/15 08:55:07;;;;;;;5.17;2.52;;;;;;;8.30;48.96;102463.56;1737477;81;21015;-68
2022/02/15 08:57:35;;;;;;;3.95;2.12;;;;;;;8.31;48.93;102460.09;1730210;81;21061;-67
2022/02/15 09:00:06;;;;;;;4.37;2.30;;;;;;;8.32;48.83;102463.16;1730938;81;21509;-68
2022/02/15 09:02:35;;;;;;;6.15;2.35;;;;;;;8.34;49.05;102465.34;1742295;80;20994;-67
2022/02/15 09:05:04;;;;;;;4.75;2.55;;;;;;;8.37;49.11;102464.08;1750052;80;21038;-67
2022/02/15 09:07:31;;;;;;;5.30;2.33;;;;;;;8.39;49.05;102459.81;1757745;81;21095;-68
2022/02/15 09:09:57;;;;;;;4.67;2.47;;;;;;;8.38;49.05;102455.05;1732625;81;21025;-68
2022/02/15 09:12:24;;;;;;;7.60;2.55;;;;;;;8.38;49.20;102456.76;1709042;83;21105;-69
2022/02/15 09:14:51;;;;;;;5.30;2.45;;;;;;;8.37;49.39;102456.30;1741485;81;21458;-68
2022/02/15 09:17:17;;;;;;;3.15;2.55;;;;;;;8.38;49.61;102452.86;1773428;81;21529;-68
2022/02/15 09:19:44;;;;;;;4.12;2.47;;;;;;;8.39;49.80;102452.03;1764298;81;21029;-69
2022/02/15 09:22:11;;;;;;;5.15;2.70;;;;;;;8.41;50.00;102456.81;1755446;81;21013;-68
2022/02/15 09:24:37;;;;;;;4.55;2.30;;;;;;;8.43;50.24;102444.73;1733945;81;21010;-67
2022/02/15 09:27:04;;;;;;;5.62;2.20;;;;;;;8.47;50.36;102450.41;1741845;81;21546;-68
2022/02/15 09:29:32;;;;;;;4.40;2.60;;;;;;;8.50;50.31;102442.66;1752541;80;21551;-68
2022/02/15 09:31:58;;;;;;;4.62;2.50;;;;;;;8.57;50.39;102449.69;1758741;80;20986;-68
2022/02/15 09:34:27;;;;;;;5.00;2.17;;;;;;;8.62;50.36;102446.28;1749077;80;20990;-68
2022/02/15 09:36:53;;;;;;;4.97;2.52;;;;;;;8.68;50.43;102445.48;1747444;80;20988;-68
2022/02/15 09:39:20;;;;;;;4.12;2.08;;;;;;;8.70;50.37;102442.06;1780992;80;21017;-69
2022/02/15 09:41:47;;;;;;;6.95;2.90;;;;;;;8.75;50.41;102440.83;1787691;80;20959;-68
2022/02/15 09:44:13;;;;;;;7.05;2.52;;;;;;;8.78;50.40;102434.36;1787375;80;20970;-69
2022/02/15 09:46:42;;;;;;;4.78;2.35;;;;;;;8.83;50.56;102440.50;1786440;80;21509;-68
2022/02/15 09:49:48;;;;;;;3.50;2.05;;;;;;;8.87;50.50;102437.08;1789397;79;21030;-69
2022/02/15 09:51:37;;;;;;;5.45;2.37;;;;;;;8.91;50.43;102436.27;1750624;80;21506;-68
2022/02/15 09:54:03;;;;;;;6.47;5.15;;;;;;;8.95;50.50;102430.25;1738487;80;21520;-68
2022/02/15 09:56:30;;;;;;;9.95;6.87;;;;;;;8.97;50.43;102425.95;1741258;81;21491;-68
2022/02/15 09:58:56;;;;;;;10.55;9.28;;;;;;;8.98;50.35;102427.70;1764411;81;21567;-68
2022/02/15 10:01:23;;;;;;;14.55;11.75;;;;;;;8.99;50.18;102423.81;1767475;80;21504;-68
2022/02/15 10:04:00;;;;;;;6.83;5.30;;;;;;;9.01;50.17;102418.22;1775770;80;21047;-69
2022/02/15 10:06:30;;;;;;;12.93;9.48;;;;;;;9.00;50.10;102411.27;1778730;80;21041;-68
2022/02/15 10:09:01;;;;;;;53.50;38.40;;;;;;;9.00;50.13;102405.23;1786465;80;21026;-69
2022/02/15 10:11:39;;;;;;;20.90;15.83;;;;;;;9.00;50.26;102408.67;1786213;80;21453;-68
2022/02/15 10:14:06;;;;;;;18.35;13.00;;;;;;;9.01;50.15;102400.46;1705805;83;21103;-69
2022/02/15 10:16:48;;;;;;;33.10;24.57;;;;;;;9.00;50.22;102398.28;1715884;82;21064;-68
2022/02/15 10:19:21;;;;;;;67.65;56.00;;;;;;;8.98;50.18;102406.94;1691082;84;21069;-68
2022/02/15 10:21:51;;;;;;;89.62;66.28;;;;;;;8.97;50.23;102400.86;1637089;87;21094;-69
2022/02/15 10:24:18;;;;;;;121.33;85.55;;;;;;;8.96;50.26;102400.86;1627789;87;21058;-68
2022/02/15 10:27:08;;;;;;;51.10;38.28;;;;;;;8.95;50.30;102397.80;1693159;84;21085;-69
2022/02/15 10:29:37;;;;;;;49.63;37.00;;;;;;;8.95;50.33;102399.09;1692750;84;21110;-68
2022/02/15 10:32:06;;;;;;;27.55;19.80;;;;;;;8.95;50.57;102391.31;1692946;85;21033;-68
2022/02/15 10:34:32;;;;;;;18.55;13.85;;;;;;;8.95;50.65;102392.19;1693369;85;21017;-68
2022/02/15 10:37:05;;;;;;;46.68;33.70;;;;;;;8.95;50.81;102387.41;1691680;85;21072;-69
2022/02/15 10:39:42;;;;;;;10.58;8.70;;;;;;;8.96;50.83;102387.88;1684903;85;21045;-68
2022/02/15 10:42:15;;;;;;;11.22;8.40;;;;;;;8.98;50.61;102386.16;1692172;85;21501;-69
2022/02/15 10:45:05;;;;;;;10.90;6.85;;;;;;;8.97;50.63;102380.09;1688143;85;21046;-69
2022/02/15 10:47:38;;;;;;;6.25;4.15;;;;;;;8.95;50.73;102375.31;1681693;85;21046;-69
2022/02/15 10:50:11;;;;;;;6.58;4.28;;;;;;;8.94;50.91;102370.11;1693000;85;21034;-69
2022/02/15 10:52:39;;;;;;;4.85;3.87;;;;;;;8.93;50.80;102374.84;1629831;86;21053;-69
2022/02/15 10:55:07;;;;;;;9.45;6.03;;;;;;;8.89;50.58;102364.87;1665013;86;21035;-69
2022/02/15 10:57:36;;;;;;;18.90;14.38;;;;;;;8.89;50.63;102366.58;1668134;86;21096;-69
2022/02/15 11:00:13;;;;;;;16.50;12.28;;;;;;;8.86;50.79;102367.87;1669786;85;21071;-69
2022/02/15 11:02:42;;;;;;;23.25;13.53;;;;;;;8.84;50.95;102363.08;1685360;85;21134;-70
2022/02/15 11:05:11;;;;;;;17.92;14.55;;;;;;;8.82;51.06;102359.60;1673839;85;21057;-69
2022/02/15 11:07:39;;;;;;;33.15;24.77;;;;;;;8.82;51.08;102353.11;1681401;84;21083;-70
2022/02/15 11:10:39;;;;;;;114.80;82.47;;;;;;;8.85;51.22;102358.32;1694498;82;21568;-70
2022/02/15 11:13:03;;;;;;;107.07;61.77;;;;;;;8.88;51.33;102363.56;1637035;84;21070;-68
2022/02/15 11:15:31;;;;;;;46.37;34.05;;;;;;;8.91;51.39;102358.38;1598795;87;21084;-69
2022/02/15 11:18:01;;;;;;;36.77;30.43;;;;;;;8.94;51.39;102359.27;1636011;86;21066;-70
2022/02/15 11:20:30;;;;;;;19.35;17.32;;;;;;;8.97;51.37;102358.45;1634642;86;21065;-69
2022/02/15 11:22:59;;;;;;;14.38;10.72;;;;;;;9.01;51.56;102355.90;1631765;86;21025;-70
2022/02/15 11:25:37;;;;;;;12.23;10.95;;;;;;;9.03;51.58;102354.19;1637468;86;21084;-69
2022/02/15 11:28:11;;;;;;;19.05;16.40;;;;;;;9.06;51.55;102357.25;1626973;87;21132;-70
2022/02/15 11:30:54;;;;;;;11.08;7.72;;;;;;;9.08;51.57;102352.06;1616622;87;21049;-69
2022/02/15 11:33:27;;;;;;;22.07;19.73;;;;;;;9.10;51.57;102349.93;1559396;90;21069;-71
2022/02/15 11:35:56;;;;;;;21.95;19.60;;;;;;;9.12;51.60;102352.53;1563243;90;21119;-71
2022/02/15 11:38:24;;;;;;;21.73;16.10;;;;;;;9.12;51.55;102350.81;1557554;90;21582;-69
2022/02/15 11:41:12;;;;;;;12.75;9.98;;;;;;;9.14;51.69;102349.10;1520577;93;21074;-69